sensor_id;sensor_type;location;lat;lon;timestamp;temperature;humidity
14517;DHT22;7344;50.864;4.362;2023-04-25T00:01:46;9.80;20.30
14517;DHT22;7344;50.864;4.362;2023-04-25T00:04:11;9.80;19.10
14517;DHT22;7344;50.864;4.362;2023-04-25T00:06:37;9.90;17.90
14517;DHT22;7344;50.864;4.362;2023-04-25T00:09:06;9.90;16.10
14517;DHT22;7344;50.864;4.362;2023-04-25T00:11:34;10.00;16.00
14517;DHT22;7344;50.864;4.362;2023-04-25T00:14:00;10.00;13.10
14517;DHT22;7344;50.864;4.362;2023-04-25T00:16:28;9.80;15.00
14517;DHT22;7344;50.864;4.362;2023-04-25T00:18:55;9.70;19.10
14517;DHT22;7344;50.864;4.362;2023-04-25T00:21:22;9.80;19.60
14517;DHT22;7344;50.864;4.362;2023-04-25T00:23:49;9.90;18.60
14517;DHT22;7344;50.864;4.362;2023-04-25T00:26:15;9.90;18.20
14517;DHT22;7344;50.864;4.362;2023-04-25T00:28:41;10.00;15.70
14517;DHT22;7344;50.864;4.362;2023-04-25T00:31:06;10.10;14.20
14517;DHT22;7344;50.864;4.362;2023-04-25T00:33:32;10.10;17.20
14517;DHT22;7344;50.864;4.362;2023-04-25T00:35:58;10.00;16.40
14517;DHT22;7344;50.864;4.362;2023-04-25T00:38:23;9.90;19.80
14517;DHT22;7344;50.864;4.362;2023-04-25T00:40:49;9.80;23.50
14517;DHT22;7344;50.864;4.362;2023-04-25T00:43:15;9.90;26.10
14517;DHT22;7344;50.864;4.362;2023-04-25T00:45:41;10.00;28.30
14517;DHT22;7344;50.864;4.362;2023-04-25T00:48:08;9.90;32.60
14517;DHT22;7344;50.864;4.362;2023-04-25T00:50:34;9.90;36.60
14517;DHT22;7344;50.864;4.362;2023-04-25T00:53:00;9.90;39.30
14517;DHT22;7344;50.864;4.362;2023-04-25T00:55:27;9.90;41.60
14517;DHT22;7344;50.864;4.362;2023-04-25T00:57:53;9.90;43.30
14517;DHT22;7344;50.864;4.362;2023-04-25T01:00:18;9.90;47.00
14517;DHT22;7344;50.864;4.362;2023-04-25T01:02:45;9.80;50.40
14517;DHT22;7344;50.864;4.362;2023-04-25T01:05:11;9.70;57.30
14517;DHT22;7344;50.864;4.362;2023-04-25T01:07:37;9.60;61.20
14517;DHT22;7344;50.864;4.362;2023-04-25T01:10:04;9.50;62.80
14517;DHT22;7344;50.864;4.362;2023-04-25T01:12:31;9.50;64.10
14517;DHT22;7344;50.864;4.362;2023-04-25T01:14:57;9.50;64.40
14517;DHT22;7344;50.864;4.362;2023-04-25T01:17:23;9.60;66.90
14517;DHT22;7344;50.864;4.362;2023-04-25T01:19:49;9.60;69.40
14517;DHT22;7344;50.864;4.362;2023-04-25T01:22:16;9.60;69.90
14517;DHT22;7344;50.864;4.362;2023-04-25T01:24:42;9.60;69.00
14517;DHT22;7344;50.864;4.362;2023-04-25T01:27:09;9.50;68.30
14517;DHT22;7344;50.864;4.362;2023-04-25T01:29:35;9.50;70.40
14517;DHT22;7344;50.864;4.362;2023-04-25T01:32:01;9.50;71.10
14517;DHT22;7344;50.864;4.362;2023-04-25T01:34:27;9.60;69.40
14517;DHT22;7344;50.864;4.362;2023-04-25T01:36:53;9.60;63.60
14517;DHT22;7344;50.864;4.362;2023-04-25T01:39:19;9.60;61.80
14517;DHT22;7344;50.864;4.362;2023-04-25T01:41:48;9.60;62.00
14517;DHT22;7344;50.864;4.362;2023-04-25T01:44:14;9.50;63.40
14517;DHT22;7344;50.864;4.362;2023-04-25T01:46:41;9.50;65.30
14517;DHT22;7344;50.864;4.362;2023-04-25T01:49:06;9.40;66.00
14517;DHT22;7344;50.864;4.362;2023-04-25T01:51:32;9.30;71.00
14517;DHT22;7344;50.864;4.362;2023-04-25T01:53:58;9.20;75.50
14517;DHT22;7344;50.864;4.362;2023-04-25T01:56:24;9.20;82.20
14517;DHT22;7344;50.864;4.362;2023-04-25T01:58:51;9.20;86.40
14517;DHT22;7344;50.864;4.362;2023-04-25T02:01:16;9.20;86.90
14517;DHT22;7344;50.864;4.362;2023-04-25T02:03:43;9.10;85.80
14517;DHT22;7344;50.864;4.362;2023-04-25T02:06:08;9.10;91.20
14517;DHT22;7344;50.864;4.362;2023-04-25T02:08:35;9.10;93.30
14517;DHT22;7344;50.864;4.362;2023-04-25T02:11:02;9.10;94.40
14517;DHT22;7344;50.864;4.362;2023-04-25T02:13:28;9.10;94.80
14517;DHT22;7344;50.864;4.362;2023-04-25T02:15:54;9.10;95.00
14517;DHT22;7344;50.864;4.362;2023-04-25T02:18:19;9.10;96.70
14517;DHT22;7344;50.864;4.362;2023-04-25T02:20:46;9.10;96.70
14517;DHT22;7344;50.864;4.362;2023-04-25T02:23:12;9.00;98.10
14517;DHT22;7344;50.864;4.362;2023-04-25T02:25:37;9.10;99.10
14517;DHT22;7344;50.864;4.362;2023-04-25T02:28:03;9.10;99.70
14517;DHT22;7344;50.864;4.362;2023-04-25T02:30:29;9.10;99.90
14517;DHT22;7344;50.864;4.362;2023-04-25T02:32:55;9.10;99.90
14517;DHT22;7344;50.864;4.362;2023-04-25T02:35:21;9.00;99.90
14517;DHT22;7344;50.864;4.362;2023-04-25T02:37:47;9.10;99.90
14517;DHT22;7344;50.864;4.362;2023-04-25T02:40:13;9.10;99.90
14517;DHT22;7344;50.864;4.362;2023-04-25T02:42:38;9.00;99.90
14517;DHT22;7344;50.864;4.362;2023-04-25T02:45:04;9.00;99.90
14517;DHT22;7344;50.864;4.362;2023-04-25T02:47:30;9.10;99.90
14517;DHT22;7344;50.864;4.362;2023-04-25T02:49:55;9.10;99.90
14517;DHT22;7344;50.864;4.362;2023-04-25T02:52:21;9.10;99.90
14517;DHT22;7344;50.864;4.362;2023-04-25T02:54:47;9.10;99.90
14517;DHT22;7344;50.864;4.362;2023-04-25T02:57:12;9.10;99.90
14517;DHT22;7344;50.864;4.362;2023-04-25T02:59:38;9.00;99.90
14517;DHT22;7344;50.864;4.362;2023-04-25T03:02:04;9.00;99.90
14517;DHT22;7344;50.864;4.362;2023-04-25T03:04:29;9.00;99.90
14517;DHT22;7344;50.864;4.362;2023-04-25T03:06:55;9.00;99.90
14517;DHT22;7344;50.864;4.362;2023-04-25T03:09:21;8.90;99.90
14517;DHT22;7344;50.864;4.362;2023-04-25T03:11:46;9.00;99.90
14517;DHT22;7344;50.864;4.362;2023-04-25T03:14:13;8.90;99.90
14517;DHT22;7344;50.864;4.362;2023-04-25T03:16:39;8.90;99.90
14517;DHT22;7344;50.864;4.362;2023-04-25T03:19:05;8.90;99.90
14517;DHT22;7344;50.864;4.362;2023-04-25T03:21:32;8.90;99.90
14517;DHT22;7344;50.864;4.362;2023-04-25T03:23:58;9.00;97.20
14517;DHT22;7344;50.864;4.362;2023-04-25T03:26:24;8.90;95.80
14517;DHT22;7344;50.864;4.362;2023-04-25T03:28:50;8.90;94.00
14517;DHT22;7344;50.864;4.362;2023-04-25T03:31:16;8.70;93.50
14517;DHT22;7344;50.864;4.362;2023-04-25T03:33:41;8.60;96.40
14517;DHT22;7344;50.864;4.362;2023-04-25T03:36:07;8.60;99.00
14517;DHT22;7344;50.864;4.362;2023-04-25T03:38:33;8.70;98.70
14517;DHT22;7344;50.864;4.362;2023-04-25T03:40:59;8.70;97.50
14517;DHT22;7344;50.864;4.362;2023-04-25T03:43:24;8.60;96.60
14517;DHT22;7344;50.864;4.362;2023-04-25T03:45:50;8.60;97.30
14517;DHT22;7344;50.864;4.362;2023-04-25T03:48:16;8.60;97.70
14517;DHT22;7344;50.864;4.362;2023-04-25T03:50:42;8.60;95.80
14517;DHT22;7344;50.864;4.362;2023-04-25T03:53:07;8.50;94.40
14517;DHT22;7344;50.864;4.362;2023-04-25T03:55:33;8.50;93.90
14517;DHT22;7344;50.864;4.362;2023-04-25T03:57:58;8.50;90.20
14517;DHT22;7344;50.864;4.362;2023-04-25T04:00:25;8.40;90.20
14517;DHT22;7344;50.864;4.362;2023-04-25T04:02:50;8.40;91.80
14517;DHT22;7344;50.864;4.362;2023-04-25T04:05:16;8.30;92.00
14517;DHT22;7344;50.864;4.362;2023-04-25T04:07:42;8.30;92.00
14517;DHT22;7344;50.864;4.362;2023-04-25T04:10:09;8.40;93.00
14517;DHT22;7344;50.864;4.362;2023-04-25T04:12:35;8.40;86.10
14517;DHT22;7344;50.864;4.362;2023-04-25T04:15:02;8.50;85.30
14517;DHT22;7344;50.864;4.362;2023-04-25T04:17:29;8.40;87.20
14517;DHT22;7344;50.864;4.362;2023-04-25T04:19:55;8.30;87.50
14517;DHT22;7344;50.864;4.362;2023-04-25T04:22:21;8.30;92.00
14517;DHT22;7344;50.864;4.362;2023-04-25T04:24:47;8.30;94.30
14517;DHT22;7344;50.864;4.362;2023-04-25T04:27:13;8.40;93.70
14517;DHT22;7344;50.864;4.362;2023-04-25T04:29:39;8.40;90.90
14517;DHT22;7344;50.864;4.362;2023-04-25T04:32:04;8.40;90.80
14517;DHT22;7344;50.864;4.362;2023-04-25T04:34:30;8.40;90.60
14517;DHT22;7344;50.864;4.362;2023-04-25T04:36:56;8.40;89.50
14517;DHT22;7344;50.864;4.362;2023-04-25T04:39:22;8.40;90.00
14517;DHT22;7344;50.864;4.362;2023-04-25T04:41:48;8.50;90.80
14517;DHT22;7344;50.864;4.362;2023-04-25T04:44:14;8.60;90.30
14517;DHT22;7344;50.864;4.362;2023-04-25T04:46:40;8.60;80.90
14517;DHT22;7344;50.864;4.362;2023-04-25T04:49:10;8.60;79.80
14517;DHT22;7344;50.864;4.362;2023-04-25T04:51:36;8.50;79.10
14517;DHT22;7344;50.864;4.362;2023-04-25T04:54:02;8.50;80.50
14517;DHT22;7344;50.864;4.362;2023-04-25T04:56:29;8.50;86.40
14517;DHT22;7344;50.864;4.362;2023-04-25T04:58:56;8.50;85.00
14517;DHT22;7344;50.864;4.362;2023-04-25T05:01:22;8.40;78.40
14517;DHT22;7344;50.864;4.362;2023-04-25T05:03:48;8.40;73.00
14517;DHT22;7344;50.864;4.362;2023-04-25T05:06:15;8.30;74.40
14517;DHT22;7344;50.864;4.362;2023-04-25T05:08:41;8.40;72.10
14517;DHT22;7344;50.864;4.362;2023-04-25T05:11:07;8.30;73.70
14517;DHT22;7344;50.864;4.362;2023-04-25T05:13:32;8.30;71.00
14517;DHT22;7344;50.864;4.362;2023-04-25T05:15:58;8.20;69.50
14517;DHT22;7344;50.864;4.362;2023-04-25T05:18:23;8.30;68.80
14517;DHT22;7344;50.864;4.362;2023-04-25T05:20:49;8.20;60.40
14517;DHT22;7344;50.864;4.362;2023-04-25T05:23:15;8.10;68.30
14517;DHT22;7344;50.864;4.362;2023-04-25T05:25:41;8.00;72.60
14517;DHT22;7344;50.864;4.362;2023-04-25T05:28:07;8.00;75.10
14517;DHT22;7344;50.864;4.362;2023-04-25T05:30:35;7.80;86.60
14517;DHT22;7344;50.864;4.362;2023-04-25T05:33:00;7.90;92.50
14517;DHT22;7344;50.864;4.362;2023-04-25T05:35:26;8.00;94.90
14517;DHT22;7344;50.864;4.362;2023-04-25T05:37:52;7.80;84.00
14517;DHT22;7344;50.864;4.362;2023-04-25T05:40:18;7.60;91.30
14517;DHT22;7344;50.864;4.362;2023-04-25T05:42:43;7.60;92.00
14517;DHT22;7344;50.864;4.362;2023-04-25T05:45:09;7.60;95.10
14517;DHT22;7344;50.864;4.362;2023-04-25T05:47:35;7.50;94.20
14517;DHT22;7344;50.864;4.362;2023-04-25T05:50:01;7.60;99.70
14517;DHT22;7344;50.864;4.362;2023-04-25T05:52:28;7.80;99.90
14517;DHT22;7344;50.864;4.362;2023-04-25T05:54:53;8.00;98.70
14517;DHT22;7344;50.864;4.362;2023-04-25T05:57:23;8.20;96.30
14517;DHT22;7344;50.864;4.362;2023-04-25T05:59:49;8.20;83.20
14517;DHT22;7344;50.864;4.362;2023-04-25T06:02:15;8.30;80.20
14517;DHT22;7344;50.864;4.362;2023-04-25T06:04:41;8.40;80.30
14517;DHT22;7344;50.864;4.362;2023-04-25T06:07:07;8.40;75.40
14517;DHT22;7344;50.864;4.362;2023-04-25T06:09:32;8.60;78.50
14517;DHT22;7344;50.864;4.362;2023-04-25T06:11:58;8.70;73.20
14517;DHT22;7344;50.864;4.362;2023-04-25T06:14:23;8.90;69.60
14517;DHT22;7344;50.864;4.362;2023-04-25T06:16:49;8.90;60.60
14517;DHT22;7344;50.864;4.362;2023-04-25T06:19:14;9.10;55.10
14517;DHT22;7344;50.864;4.362;2023-04-25T06:21:42;9.30;48.00
14517;DHT22;7344;50.864;4.362;2023-04-25T06:24:08;9.40;36.50
14517;DHT22;7344;50.864;4.362;2023-04-25T06:26:34;9.60;29.60
14517;DHT22;7344;50.864;4.362;2023-04-25T06:28:59;9.70;22.90
14517;DHT22;7344;50.864;4.362;2023-04-25T06:31:25;9.80;10.80
14517;DHT22;7344;50.864;4.362;2023-04-25T06:33:51;10.00;3.40
14517;DHT22;7344;50.864;4.362;2023-04-25T06:36:20;10.10;1.00
14517;DHT22;7344;50.864;4.362;2023-04-25T06:38:50;10.20;1.00
14517;DHT22;7344;50.864;4.362;2023-04-25T06:41:16;10.00;1.00
14517;DHT22;7344;50.864;4.362;2023-04-25T06:43:41;9.90;1.00
14517;DHT22;7344;50.864;4.362;2023-04-25T06:46:07;9.90;1.00
14517;DHT22;7344;50.864;4.362;2023-04-25T06:48:33;9.90;1.00
14517;DHT22;7344;50.864;4.362;2023-04-25T06:50:58;10.10;1.00
14517;DHT22;7344;50.864;4.362;2023-04-25T06:53:24;10.10;1.00
14517;DHT22;7344;50.864;4.362;2023-04-25T06:55:50;10.30;1.00
14517;DHT22;7344;50.864;4.362;2023-04-25T06:58:15;10.40;1.00
14517;DHT22;7344;50.864;4.362;2023-04-25T07:00:41;10.40;1.00
14517;DHT22;7344;50.864;4.362;2023-04-25T07:03:07;10.40;1.00
14517;DHT22;7344;50.864;4.362;2023-04-25T07:05:32;10.40;1.00
14517;DHT22;7344;50.864;4.362;2023-04-25T07:08:01;10.40;1.00
14517;DHT22;7344;50.864;4.362;2023-04-25T07:10:27;10.50;1.00
14517;DHT22;7344;50.864;4.362;2023-04-25T07:12:52;10.60;1.00
14517;DHT22;7344;50.864;4.362;2023-04-25T07:15:18;10.60;1.00
14517;DHT22;7344;50.864;4.362;2023-04-25T07:17:43;10.70;1.00
14517;DHT22;7344;50.864;4.362;2023-04-25T07:20:10;10.70;1.00
14517;DHT22;7344;50.864;4.362;2023-04-25T07:22:36;10.50;1.00
14517;DHT22;7344;50.864;4.362;2023-04-25T07:25:01;10.50;1.00
14517;DHT22;7344;50.864;4.362;2023-04-25T07:27:28;10.40;1.00
14517;DHT22;7344;50.864;4.362;2023-04-25T07:29:53;10.20;1.00
14517;DHT22;7344;50.864;4.362;2023-04-25T07:32:19;10.40;1.00
14517;DHT22;7344;50.864;4.362;2023-04-25T07:34:45;10.40;1.00
14517;DHT22;7344;50.864;4.362;2023-04-25T07:37:10;10.60;1.00
14517;DHT22;7344;50.864;4.362;2023-04-25T07:39:36;10.80;1.00
14517;DHT22;7344;50.864;4.362;2023-04-25T07:42:03;11.00;1.00
14517;DHT22;7344;50.864;4.362;2023-04-25T07:44:29;11.20;1.00
14517;DHT22;7344;50.864;4.362;2023-04-25T07:46:55;11.20;1.00
14517;DHT22;7344;50.864;4.362;2023-04-25T07:49:21;11.40;1.00
14517;DHT22;7344;50.864;4.362;2023-04-25T07:51:47;11.50;1.00
14517;DHT22;7344;50.864;4.362;2023-04-25T07:54:14;11.70;1.00
14517;DHT22;7344;50.864;4.362;2023-04-25T07:56:40;11.60;1.00
14517;DHT22;7344;50.864;4.362;2023-04-25T07:59:05;12.00;1.00
14517;DHT22;7344;50.864;4.362;2023-04-25T08:01:31;12.10;1.00
14517;DHT22;7344;50.864;4.362;2023-04-25T08:03:57;12.40;1.00
14517;DHT22;7344;50.864;4.362;2023-04-25T08:06:22;12.40;1.00
14517;DHT22;7344;50.864;4.362;2023-04-25T08:08:48;12.70;1.00
14517;DHT22;7344;50.864;4.362;2023-04-25T08:11:14;12.80;1.00
14517;DHT22;7344;50.864;4.362;2023-04-25T08:13:39;13.00;1.00
14517;DHT22;7344;50.864;4.362;2023-04-25T08:16:05;13.00;99.90
14517;DHT22;7344;50.864;4.362;2023-04-25T08:18:31;13.20;99.90
14517;DHT22;7344;50.864;4.362;2023-04-25T08:20:59;13.60;1.00
14517;DHT22;7344;50.864;4.362;2023-04-25T08:23:28;13.90;99.90
14517;DHT22;7344;50.864;4.362;2023-04-25T08:25:53;14.10;99.90
14517;DHT22;7344;50.864;4.362;2023-04-25T08:28:25;14.40;99.90
14517;DHT22;7344;50.864;4.362;2023-04-25T08:30:51;14.50;99.90
14517;DHT22;7344;50.864;4.362;2023-04-25T08:33:22;14.70;24.00
14517;DHT22;7344;50.864;4.362;2023-04-25T08:35:47;14.80;1.00
14517;DHT22;7344;50.864;4.362;2023-04-25T08:38:13;14.40;1.00
14517;DHT22;7344;50.864;4.362;2023-04-25T08:40:39;14.20;1.00
14517;DHT22;7344;50.864;4.362;2023-04-25T08:43:06;14.30;99.90
14517;DHT22;7344;50.864;4.362;2023-04-25T08:45:40;15.90;1.00
14517;DHT22;7344;50.864;4.362;2023-04-25T08:48:11;18.00;1.00
14517;DHT22;7344;50.864;4.362;2023-04-25T08:50:49;19.60;1.00
14517;DHT22;7344;50.864;4.362;2023-04-25T08:53:37;19.60;99.90
14517;DHT22;7344;50.864;4.362;2023-04-25T08:56:03;20.20;99.90
14517;DHT22;7344;50.864;4.362;2023-04-25T08:58:29;20.40;99.90
14517;DHT22;7344;50.864;4.362;2023-04-25T09:00:56;19.50;99.90
14517;DHT22;7344;50.864;4.362;2023-04-25T09:03:21;18.90;99.90
14517;DHT22;7344;50.864;4.362;2023-04-25T09:05:47;17.60;1.00
14517;DHT22;7344;50.864;4.362;2023-04-25T09:08:13;16.90;1.00
14517;DHT22;7344;50.864;4.362;2023-04-25T09:10:40;16.60;1.00
14517;DHT22;7344;50.864;4.362;2023-04-25T09:13:13;16.40;1.00
14517;DHT22;7344;50.864;4.362;2023-04-25T09:15:50;16.20;1.00
14517;DHT22;7344;50.864;4.362;2023-04-25T09:18:24;15.50;26.20
14517;DHT22;7344;50.864;4.362;2023-04-25T09:20:54;14.50;1.00
14517;DHT22;7344;50.864;4.362;2023-04-25T09:23:21;14.00;99.90
14517;DHT22;7344;50.864;4.362;2023-04-25T09:25:51;13.80;99.90
14517;DHT22;7344;50.864;4.362;2023-04-25T09:28:23;13.50;1.00
14517;DHT22;7344;50.864;4.362;2023-04-25T09:30:55;13.20;1.00
14517;DHT22;7344;50.864;4.362;2023-04-25T09:33:20;12.90;18.80
14517;DHT22;7344;50.864;4.362;2023-04-25T09:36:06;12.80;1.00
14517;DHT22;7344;50.864;4.362;2023-04-25T09:38:48;13.30;1.00
14517;DHT22;7344;50.864;4.362;2023-04-25T09:41:23;14.40;1.00
14517;DHT22;7344;50.864;4.362;2023-04-25T09:43:49;15.60;1.00
14517;DHT22;7344;50.864;4.362;2023-04-25T09:46:15;17.10;1.00
14517;DHT22;7344;50.864;4.362;2023-04-25T09:48:49;19.20;1.00
14517;DHT22;7344;50.864;4.362;2023-04-25T09:51:14;20.60;99.90
14517;DHT22;7344;50.864;4.362;2023-04-25T09:53:42;21.20;99.90
14517;DHT22;7344;50.864;4.362;2023-04-25T09:56:10;21.10;99.90
14517;DHT22;7344;50.864;4.362;2023-04-25T09:58:37;20.40;99.90
14517;DHT22;7344;50.864;4.362;2023-04-25T10:01:05;20.10;99.90
14517;DHT22;7344;50.864;4.362;2023-04-25T10:03:36;19.10;99.90
14517;DHT22;7344;50.864;4.362;2023-04-25T10:06:12;18.20;99.90
14517;DHT22;7344;50.864;4.362;2023-04-25T10:08:41;18.30;99.90
14517;DHT22;7344;50.864;4.362;2023-04-25T10:11:08;18.10;99.90
14517;DHT22;7344;50.864;4.362;2023-04-25T10:13:40;17.20;1.00
14517;DHT22;7344;50.864;4.362;2023-04-25T10:16:06;18.10;99.90
14517;DHT22;7344;50.864;4.362;2023-04-25T10:18:32;19.30;99.90
14517;DHT22;7344;50.864;4.362;2023-04-25T10:21:00;20.40;99.90
14517;DHT22;7344;50.864;4.362;2023-04-25T10:23:27;20.90;99.90
14517;DHT22;7344;50.864;4.362;2023-04-25T10:25:54;21.10;99.90
14517;DHT22;7344;50.864;4.362;2023-04-25T10:28:20;21.10;99.90
14517;DHT22;7344;50.864;4.362;2023-04-25T10:31:03;19.80;99.90
14517;DHT22;7344;50.864;4.362;2023-04-25T10:33:39;18.50;99.90
14517;DHT22;7344;50.864;4.362;2023-04-25T10:36:15;18.50;99.90
14517;DHT22;7344;50.864;4.362;2023-04-25T10:38:43;17.60;99.90
14517;DHT22;7344;50.864;4.362;2023-04-25T10:41:10;17.50;99.90
14517;DHT22;7344;50.864;4.362;2023-04-25T10:43:46;17.10;99.90
14517;DHT22;7344;50.864;4.362;2023-04-25T10:46:22;16.80;99.90
14517;DHT22;7344;50.864;4.362;2023-04-25T10:48:53;16.70;99.90
14517;DHT22;7344;50.864;4.362;2023-04-25T10:51:25;16.40;1.00
14517;DHT22;7344;50.864;4.362;2023-04-25T10:56:27;15.60;1.00
14517;DHT22;7344;50.864;4.362;2023-04-25T10:59:16;15.60;1.00
14517;DHT22;7344;50.864;4.362;2023-04-25T11:01:44;15.40;1.00
14517;DHT22;7344;50.864;4.362;2023-04-25T11:04:43;15.20;99.90
14517;DHT22;7344;50.864;4.362;2023-04-25T11:07:11;14.80;9.40
14517;DHT22;7344;50.864;4.362;2023-04-25T11:09:39;14.00;99.90
14517;DHT22;7344;50.864;4.362;2023-04-25T11:12:08;13.60;99.90
14517;DHT22;7344;50.864;4.362;2023-04-25T11:14:35;13.30;1.00
14517;DHT22;7344;50.864;4.362;2023-04-25T11:17:01;13.10;1.00
14517;DHT22;7344;50.864;4.362;2023-04-25T11:19:28;13.60;1.00
14517;DHT22;7344;50.864;4.362;2023-04-25T11:21:58;14.10;99.90
14517;DHT22;7344;50.864;4.362;2023-04-25T11:24:30;14.50;99.90
14517;DHT22;7344;50.864;4.362;2023-04-25T11:27:01;14.80;1.00
14517;DHT22;7344;50.864;4.362;2023-04-25T11:29:32;14.70;99.90
14517;DHT22;7344;50.864;4.362;2023-04-25T11:32:00;14.80;99.90
14517;DHT22;7344;50.864;4.362;2023-04-25T11:34:27;14.80;1.00
14517;DHT22;7344;50.864;4.362;2023-04-25T11:36:56;15.00;1.00
14517;DHT22;7344;50.864;4.362;2023-04-25T11:39:23;15.50;1.00
14517;DHT22;7344;50.864;4.362;2023-04-25T11:41:50;15.80;1.00
14517;DHT22;7344;50.864;4.362;2023-04-25T11:44:16;15.80;1.00
14517;DHT22;7344;50.864;4.362;2023-04-25T11:46:43;15.90;99.90
14517;DHT22;7344;50.864;4.362;2023-04-25T11:49:08;16.00;99.90
14517;DHT22;7344;50.864;4.362;2023-04-25T11:51:41;15.90;1.00
14517;DHT22;7344;50.864;4.362;2023-04-25T11:54:07;16.20;1.00
14517;DHT22;7344;50.864;4.362;2023-04-25T11:56:33;16.70;1.00
14517;DHT22;7344;50.864;4.362;2023-04-25T11:59:03;16.50;1.00
14517;DHT22;7344;50.864;4.362;2023-04-25T12:01:31;16.30;1.00
14517;DHT22;7344;50.864;4.362;2023-04-25T12:03:58;16.30;1.00
14517;DHT22;7344;50.864;4.362;2023-04-25T12:06:29;16.40;1.00
14517;DHT22;7344;50.864;4.362;2023-04-25T12:09:00;16.40;1.00
14517;DHT22;7344;50.864;4.362;2023-04-25T12:11:26;16.50;1.00
14517;DHT22;7344;50.864;4.362;2023-04-25T12:13:52;16.50;1.00
14517;DHT22;7344;50.864;4.362;2023-04-25T12:16:19;16.60;1.00
14517;DHT22;7344;50.864;4.362;2023-04-25T12:18:45;16.20;1.00
14517;DHT22;7344;50.864;4.362;2023-04-25T12:21:10;15.90;1.00
14517;DHT22;7344;50.864;4.362;2023-04-25T12:23:38;15.50;1.00
14517;DHT22;7344;50.864;4.362;2023-04-25T12:26:05;15.30;1.00
14517;DHT22;7344;50.864;4.362;2023-04-25T12:28:32;15.00;1.00
14517;DHT22;7344;50.864;4.362;2023-04-25T12:33:30;14.80;1.00
14517;DHT22;7344;50.864;4.362;2023-04-25T12:35:56;14.70;1.00
14517;DHT22;7344;50.864;4.362;2023-04-25T12:38:29;14.90;1.00
14517;DHT22;7344;50.864;4.362;2023-04-25T12:40:56;15.00;1.00
14517;DHT22;7344;50.864;4.362;2023-04-25T12:43:22;15.30;1.00
14517;DHT22;7344;50.864;4.362;2023-04-25T12:45:49;15.10;1.00
14517;DHT22;7344;50.864;4.362;2023-04-25T12:48:16;15.20;1.00
14517;DHT22;7344;50.864;4.362;2023-04-25T12:50:42;15.30;1.00
14517;DHT22;7344;50.864;4.362;2023-04-25T12:53:08;15.70;1.00
14517;DHT22;7344;50.864;4.362;2023-04-25T12:55:34;15.50;1.00
14517;DHT22;7344;50.864;4.362;2023-04-25T12:58:00;15.30;1.00
14517;DHT22;7344;50.864;4.362;2023-04-25T13:00:26;15.10;1.00
14517;DHT22;7344;50.864;4.362;2023-04-25T13:02:52;15.10;36.70
14517;DHT22;7344;50.864;4.362;2023-04-25T13:05:17;14.80;99.90
14517;DHT22;7344;50.864;4.362;2023-04-25T13:07:43;14.60;1.00
14517;DHT22;7344;50.864;4.362;2023-04-25T13:10:09;14.40;1.00
14517;DHT22;7344;50.864;4.362;2023-04-25T13:12:34;14.40;1.00
14517;DHT22;7344;50.864;4.362;2023-04-25T13:15:00;14.60;1.00
14517;DHT22;7344;50.864;4.362;2023-04-25T13:17:26;14.50;1.00
14517;DHT22;7344;50.864;4.362;2023-04-25T13:19:51;14.50;1.00
14517;DHT22;7344;50.864;4.362;2023-04-25T13:22:17;14.30;1.00
14517;DHT22;7344;50.864;4.362;2023-04-25T13:24:45;14.20;1.00
14517;DHT22;7344;50.864;4.362;2023-04-25T13:27:11;14.30;99.90
14517;DHT22;7344;50.864;4.362;2023-04-25T13:29:36;14.40;99.90
14517;DHT22;7344;50.864;4.362;2023-04-25T13:32:03;14.10;1.00
14517;DHT22;7344;50.864;4.362;2023-04-25T13:34:29;14.10;26.80
14517;DHT22;7344;50.864;4.362;2023-04-25T13:36:56;14.20;75.10
14517;DHT22;7344;50.864;4.362;2023-04-25T13:39:21;14.50;4.40
14517;DHT22;7344;50.864;4.362;2023-04-25T13:41:47;14.70;1.00
14517;DHT22;7344;50.864;4.362;2023-04-25T13:44:13;14.90;1.00
14517;DHT22;7344;50.864;4.362;2023-04-25T13:46:38;14.70;1.00
14517;DHT22;7344;50.864;4.362;2023-04-25T13:49:04;14.40;1.00
14517;DHT22;7344;50.864;4.362;2023-04-25T13:51:30;14.20;1.00
14517;DHT22;7344;50.864;4.362;2023-04-25T13:53:56;13.90;99.90
14517;DHT22;7344;50.864;4.362;2023-04-25T13:56:22;14.00;1.00
14517;DHT22;7344;50.864;4.362;2023-04-25T13:58:51;13.70;1.00
14517;DHT22;7344;50.864;4.362;2023-04-25T14:01:17;13.40;1.00
14517;DHT22;7344;50.864;4.362;2023-04-25T14:03:44;13.10;46.50
14517;DHT22;7344;50.864;4.362;2023-04-25T14:06:09;13.10;1.00
14517;DHT22;7344;50.864;4.362;2023-04-25T14:08:36;13.10;99.90
14517;DHT22;7344;50.864;4.362;2023-04-25T14:11:02;12.90;1.00
14517;DHT22;7344;50.864;4.362;2023-04-25T14:13:28;13.00;1.00
14517;DHT22;7344;50.864;4.362;2023-04-25T14:15:54;13.10;99.90
14517;DHT22;7344;50.864;4.362;2023-04-25T14:18:20;13.20;99.90
14517;DHT22;7344;50.864;4.362;2023-04-25T14:20:45;13.20;99.90
14517;DHT22;7344;50.864;4.362;2023-04-25T14:23:11;13.20;1.00
14517;DHT22;7344;50.864;4.362;2023-04-25T14:25:37;13.10;1.00
14517;DHT22;7344;50.864;4.362;2023-04-25T14:28:03;13.10;1.00
14517;DHT22;7344;50.864;4.362;2023-04-25T14:30:29;13.20;99.90
14517;DHT22;7344;50.864;4.362;2023-04-25T14:32:55;13.30;99.90
14517;DHT22;7344;50.864;4.362;2023-04-25T14:35:22;13.50;99.90
14517;DHT22;7344;50.864;4.362;2023-04-25T14:37:48;13.50;1.00
14517;DHT22;7344;50.864;4.362;2023-04-25T14:40:14;13.50;1.00
14517;DHT22;7344;50.864;4.362;2023-04-25T14:42:40;13.60;49.10
14517;DHT22;7344;50.864;4.362;2023-04-25T14:45:08;13.70;1.00
14517;DHT22;7344;50.864;4.362;2023-04-25T14:47:37;13.60;1.00
14517;DHT22;7344;50.864;4.362;2023-04-25T14:50:03;13.70;16.90
14517;DHT22;7344;50.864;4.362;2023-04-25T14:52:30;13.60;1.00
14517;DHT22;7344;50.864;4.362;2023-04-25T14:54:56;13.70;1.00
14517;DHT22;7344;50.864;4.362;2023-04-25T14:57:21;13.70;1.00
14517;DHT22;7344;50.864;4.362;2023-04-25T14:59:47;13.70;39.50
14517;DHT22;7344;50.864;4.362;2023-04-25T15:02:13;13.70;99.90
14517;DHT22;7344;50.864;4.362;2023-04-25T15:04:38;13.80;99.90
14517;DHT22;7344;50.864;4.362;2023-04-25T15:07:05;13.70;1.00
14517;DHT22;7344;50.864;4.362;2023-04-25T15:09:31;13.70;1.00
14517;DHT22;7344;50.864;4.362;2023-04-25T15:11:57;13.60;99.90
14517;DHT22;7344;50.864;4.362;2023-04-25T15:14:23;13.60;1.00
14517;DHT22;7344;50.864;4.362;2023-04-25T15:16:48;13.50;1.00
14517;DHT22;7344;50.864;4.362;2023-04-25T15:19:14;13.40;1.00
14517;DHT22;7344;50.864;4.362;2023-04-25T15:21:40;13.50;1.00
14517;DHT22;7344;50.864;4.362;2023-04-25T15:24:06;13.20;1.00
14517;DHT22;7344;50.864;4.362;2023-04-25T15:26:31;13.20;1.00
14517;DHT22;7344;50.864;4.362;2023-04-25T15:28:57;13.00;99.90
14517;DHT22;7344;50.864;4.362;2023-04-25T15:31:23;12.90;99.90
14517;DHT22;7344;50.864;4.362;2023-04-25T15:33:48;12.80;99.90
14517;DHT22;7344;50.864;4.362;2023-04-25T15:36:14;12.70;99.90
14517;DHT22;7344;50.864;4.362;2023-04-25T15:38:41;12.70;1.00
14517;DHT22;7344;50.864;4.362;2023-04-25T15:41:07;12.70;99.90
14517;DHT22;7344;50.864;4.362;2023-04-25T15:43:33;12.70;1.00
14517;DHT22;7344;50.864;4.362;2023-04-25T15:46:02;12.60;1.00
14517;DHT22;7344;50.864;4.362;2023-04-25T15:48:28;12.60;99.90
14517;DHT22;7344;50.864;4.362;2023-04-25T15:50:54;12.70;99.90
14517;DHT22;7344;50.864;4.362;2023-04-25T15:53:20;12.70;1.00
14517;DHT22;7344;50.864;4.362;2023-04-25T15:55:45;12.60;99.90
14517;DHT22;7344;50.864;4.362;2023-04-25T15:58:11;12.40;99.90
14517;DHT22;7344;50.864;4.362;2023-04-25T16:00:37;12.50;99.90